• Join FlightAware (Why Join?)
  • Login
  • US Flag 
01:31AM EDT


 

Airport Tracker/Info


-or-


 

Live Flight TrackerFlight Track Log ✈ UAL4588 ✈ 11-Apr-2013 ✈ KRIC - KEWR

Flight Track Log - Related Links

Times and Time Zones

All times are in EDT time to prevent confusion due to time zone crossing. See the UAL4588 flight status page for this flight to view local times or setup timezone preferences in your user account.

Time Position Orientation Groundspeed Altitude Reporting Facility
EDT Latitude Longitude Course Direction KTS MPH feet Rate Location/Type
01:51PM 37.4667 -77.2667 38° Northeast 205 236 2,800  Level Potomac TRACON
01:52PM 37.4633 -77.2244 96° East 222 255 3,900 2,160 Climbing Washington Center
01:53PM 37.4856 -77.1333 73° East 258 297 6,400 2,580 Climbing Washington Center
01:54PM 37.7423 -77.0577 38° Northeast  Level FlightAware Approximate
01:54PM 37.5181 -77.0267 69° East 285 328 9,100  Level Washington Center
01:55PM 37.8047 -76.9953 38° Northeast  Level FlightAware Approximate
01:55PM 37.5692 -76.9306 56° Northeast 299 344 11,000  Level Washington Center
01:56PM 37.8671 -76.9330 38° Northeast  Level FlightAware Approximate
01:56PM 37.6392 -76.8269 50° Northeast 346 398 11,000  Level Washington Center
01:57PM 37.7111 -76.7231 49° Northeast 372 428 11,000  Level Washington Center
01:58PM 37.8075 -76.6800 19° North 359 413 11,000 480 Level Washington Center
01:59PM 37.9014 -76.6786 North 353 406 12,000 1,500 Climbing Washington Center
02:00PM 38.0036 -76.6722 North 359 413 14,100 1,920 Climbing Washington Center
02:01PM 38.1081 -76.6419 13° North 369 425 15,900 1,380 Climbing Washington Center
02:02PM 38.1861 -76.5400 46° Northeast 359 413 16,900 480 Climbing Washington Center
02:03PM 38.2661 -76.4300 47° Northeast 386 444 16,900  Level Washington Center
02:04PM 38.3728 -76.3861 18° North 393 452 16,900  Level Washington Center
02:05PM 38.4878 -76.3608 10° North 398 458 17,000  Climbing Washington Center
02:06PM 38.6003 -76.3408 North 398 458 17,000  Level Washington Center
02:07PM 38.7111 -76.3233 North 398 458 17,000  Level Washington Center
02:08PM 38.8194 -76.3003 North 403 464 17,000  Level Washington Center
02:09PM 38.9342 -76.2828 North 408 470 17,000 -60 Level Washington Center
02:10PM 39.0428 -76.2625 North 403 464 16,900 -60 Descending Washington Center
02:11PM 39.1472 -76.2286 14° North 398 458 16,900  Level Washington Center
02:12PM 39.2353 -76.1328 40° Northeast 381 438 16,900  Level Washington Center
02:13PM 39.3189 -76.0369 42° Northeast 393 452 16,900  Level Washington Center
02:14PM 39.4025 -75.9353 43° Northeast 399 459 16,900  Level Washington Center
02:15PM 39.4883 -75.8361 42° Northeast 406 467 16,900  Level Washington Center
02:16PM 39.5739 -75.7342 43° Northeast 411 473 16,900  Level Washington Center
02:17PM 39.6614 -75.6319 42° Northeast 416 479 16,900  Level Washington Center
02:18PM 39.7447 -75.5294 43° Northeast 416 479 16,900  Level Washington Center
02:19PM 39.8322 -75.4239 43° Northeast 416 479 17,000 -780 Climbing Washington Center
02:20PM 39.9258 -75.3100 43° Northeast 416 479 15,400 -2,220 Descending Washington Center
02:21PM 40.0089 -75.2094 43° Northeast 421 484 12,600 -2,220 Descending Washington Center
02:22PM 40.0875 -75.1142 43° Northeast 416 479 11,000 -1,020 Descending Washington Center
02:23PM 40.1667 -75.0167 43° Northeast 334 384 10,600 -1,140 Descending New York TRACON
02:24PM 40.2333 -74.9333 44° Northeast 320 368 8,700 -1,200 Descending New York TRACON
02:25PM 40.2833 -74.8500 52° Northeast 306 352 8,100 -660 Descending New York TRACON
02:26PM 40.3333 -74.7833 45° Northeast 268 308 7,500 -900 Descending New York TRACON
02:27PM 40.3833 -74.7167 45° Northeast 256 295 6,400 -720 Descending New York TRACON
02:28PM 40.4333 -74.6500 45° Northeast 261 300 6,100 -180 Descending New York TRACON
02:29PM 40.4500 -74.5667 75° East 270 311 6,100 -180 Level New York TRACON
02:30PM 40.4000 -74.5167 143° Southeast 214 246 5,800 -780 Descending New York TRACON
02:31PM 40.3667 -74.4667 131° Southeast 197 227 4,600 -1,140 Descending New York TRACON
02:32PM 40.3333 -74.4333 143° Southeast 203 234 3,600 -780 Descending New York TRACON
02:33PM 40.3667 -74.3667 57° Northeast 190 219 3,100 -180 Descending New York TRACON
02:35PM 40.4667 -74.3000 27° Northeast 203 234 3,100  Level New York TRACON
02:36PM 40.5167 -74.2833 14° North 196 226 3,100 -240 Level New York TRACON
02:37PM 40.5667 -74.2500 27° Northeast 183 211 2,700 -420 Descending New York TRACON